Time;durP1;ratioP1;P1;durP2;ratioP2;P2;SDS_P1;SDS_P2;PMS_P1;PMS_P2;Temp;Humidity;BMP_temperature;BMP_pressure;BME280_temperature;BME280_humidity;BME280_pressure;Samples;Min_cycle;Max_cycle;Signal;HPM_P1;HPM_P2
2023/07/27 00:01:27;;;;;;;0.00;0.00;;;;;;;17.12;100.00;100847.31;5054485;28;20060;-44
2023/07/27 00:03:54;;;;;;;0.00;0.00;;;;;;;17.08;100.00;100852.34;5054009;28;20040;-50
2023/07/27 00:06:20;;;;;;;0.00;0.00;;;;;;;16.98;100.00;100849.31;5053914;28;20070;-46
2023/07/27 00:08:45;;;;;;;0.00;0.00;;;;;;;16.98;100.00;100841.16;5052549;28;20025;-45
2023/07/27 00:11:10;;;;;;;0.00;0.00;;;;;;;16.98;100.00;100859.34;5053809;28;20012;-45
2023/07/27 00:13:36;;;;;;;0.00;0.00;;;;;;;16.81;100.00;100862.63;5053675;28;20107;-47
2023/07/27 00:16:01;;;;;;;0.00;0.00;;;;;;;16.78;100.00;100857.66;5053718;28;20340;-45
2023/07/27 00:18:26;;;;;;;0.00;0.00;;;;;;;16.69;100.00;100858.94;5052182;28;20355;-45
2023/07/27 00:20:52;;;;;;;0.00;0.00;;;;;;;16.66;100.00;100860.22;5053591;28;20051;-46
2023/07/27 00:23:17;;;;;;;0.00;0.00;;;;;;;16.59;100.00;100875.75;5053465;28;20033;-45
2023/07/27 00:25:43;;;;;;;0.00;0.00;;;;;;;16.24;100.00;100872.66;5053513;28;20142;-49
2023/07/27 00:28:08;;;;;;;0.00;0.00;;;;;;;16.07;100.00;100872.34;5053332;28;20033;-45
2023/07/27 00:30:33;;;;;;;0.00;0.00;;;;;;;15.89;100.00;100878.47;5053480;28;20033;-48
2023/07/27 00:32:59;;;;;;;0.00;0.00;;;;;;;15.67;100.00;100872.50;5053523;28;20032;-45
2023/07/27 00:35:24;;;;;;;0.00;0.00;;;;;;;15.47;100.00;100878.00;5053698;28;20051;-45
2023/07/27 00:37:49;;;;;;;0.00;0.00;;;;;;;15.40;100.00;100877.16;5053637;28;20024;-48
2023/07/27 00:40:17;;;;;;;0.00;0.00;;;;;;;15.33;100.00;100876.38;5053223;28;20055;-50
2023/07/27 00:42:42;;;;;;;0.00;0.00;;;;;;;15.22;100.00;100885.13;5053251;28;20024;-49
2023/07/27 00:45:08;;;;;;;0.00;0.00;;;;;;;15.22;100.00;100887.84;5051847;28;20095;-47
2023/07/27 00:47:33;;;;;;;0.00;0.00;;;;;;;15.20;100.00;100887.25;5053042;28;20033;-47
2023/07/27 00:49:59;;;;;;;0.00;0.00;;;;;;;15.19;100.00;100891.81;5052798;28;20052;-48
2023/07/27 00:52:24;;;;;;;0.00;0.00;;;;;;;15.23;100.00;100884.13;5053457;28;20096;-43
2023/07/27 00:54:49;;;;;;;0.00;0.00;;;;;;;15.11;100.00;100892.91;5053235;28;20426;-45
2023/07/27 00:57:15;;;;;;;0.00;0.00;;;;;;;15.06;100.00;100887.28;5052840;28;20049;-43
2023/07/27 00:59:41;;;;;;;0.00;0.00;;;;;;;15.00;100.00;100885.38;5052038;28;20419;-47
2023/07/27 01:02:07;;;;;;;0.00;0.00;;;;;;;14.93;100.00;100876.44;5051933;28;20193;-43
2023/07/27 01:04:32;;;;;;;0.00;0.00;;;;;;;14.96;100.00;100883.31;5052998;28;20112;-45
2023/07/27 01:06:58;;;;;;;0.00;0.00;;;;;;;14.98;100.00;100881.22;5052831;28;20518;-45
2023/07/27 01:09:23;;;;;;;0.00;0.00;;;;;;;14.95;100.00;100879.75;5052825;28;20106;-46
2023/07/27 01:12:02;;;;;;;0.00;0.00;;;;;;;14.91;100.00;100873.94;5053178;28;20020;-45
2023/07/27 01:14:44;;;;;;;0.00;0.00;;;;;;;14.85;100.00;100863.94;5053540;28;20033;-44
2023/07/27 01:17:22;;;;;;;0.00;0.00;;;;;;;14.83;100.00;100859.78;5051912;28;20117;-45
2023/07/27 01:20:06;;;;;;;0.00;0.00;;;;;;;14.77;100.00;100853.31;5052704;28;20037;-47
2023/07/27 01:22:31;;;;;;;0.00;0.00;;;;;;;14.71;100.00;100844.13;5052801;28;20167;-46
2023/07/27 01:25:07;;;;;;;0.00;0.00;;;;;;;14.66;100.00;100843.09;5052610;28;20140;-47
2023/07/27 01:27:51;;;;;;;0.00;0.00;;;;;;;14.71;100.00;100830.59;5051154;28;20087;-49
2023/07/27 01:30:31;;;;;;;0.00;0.00;;;;;;;14.69;100.00;100835.41;5052266;28;20029;-49
2023/07/27 01:33:09;;;;;;;0.00;0.00;;;;;;;14.70;100.00;100834.34;5051197;28;20063;-48
2023/07/27 01:35:38;;;;;;;0.00;0.00;;;;;;;14.65;100.00;100839.56;5051023;28;20028;-48
2023/07/27 01:38:05;;;;;;;0.00;0.00;;;;;;;14.65;100.00;100825.19;5051274;28;20033;-46
2023/07/27 01:40:31;;;;;;;0.00;0.00;;;;;;;14.45;100.00;100823.25;5051217;28;20032;-47
2023/07/27 01:42:57;;;;;;;0.00;0.00;;;;;;;14.38;100.00;100816.19;5050761;28;20029;-48
2023/07/27 01:45:23;;;;;;;0.00;0.00;;;;;;;14.35;100.00;100813.88;5051927;28;20422;-48
2023/07/27 01:47:49;;;;;;;0.00;0.00;;;;;;;14.24;100.00;100799.97;5051932;28;20029;-49
2023/07/27 01:50:15;;;;;;;0.00;0.00;;;;;;;14.31;100.00;100801.81;5050587;28;20032;-49
2023/07/27 01:52:42;;;;;;;0.00;0.00;;;;;;;14.23;100.00;100803.69;5052072;28;20395;-49
2023/07/27 01:55:07;;;;;;;0.00;0.00;;;;;;;14.27;100.00;100791.41;5050761;28;20163;-48
2023/07/27 01:57:34;;;;;;;0.00;0.00;;;;;;;14.27;100.00;100787.88;5051672;28;20131;-47
2023/07/27 02:00:00;;;;;;;0.00;0.00;;;;;;;14.37;100.00;100780.16;5051976;28;20032;-43
2023/07/27 02:02:25;;;;;;;0.00;0.00;;;;;;;14.35;100.00;100776.84;5053467;28;20036;-43
2023/07/27 02:04:51;;;;;;;0.00;0.00;;;;;;;14.30;100.00;100773.94;5052038;28;20029;-44
2023/07/27 02:07:17;;;;;;;0.00;0.00;;;;;;;14.33;100.00;100772.69;5052694;28;20033;-44
2023/07/27 02:09:43;;;;;;;0.00;0.00;;;;;;;14.29;100.00;100761.41;5052623;28;20132;-46
2023/07/27 02:12:25;;;;;;;0.00;0.00;;;;;;;14.35;100.00;100757.03;5052212;28;20125;-45
2023/07/27 02:14:57;;;;;;;0.00;0.00;;;;;;;14.30;100.00;100746.84;5051819;28;20044;-44
2023/07/27 02:17:31;;;;;;;0.00;0.00;;;;;;;14.32;100.00;100733.09;5051796;28;20028;-45
2023/07/27 02:19:57;;;;;;;0.00;0.00;;;;;;;14.35;100.00;100735.38;5050176;28;20021;-45
2023/07/27 02:22:23;;;;;;;0.00;0.00;;;;;;;14.35;100.00;100729.97;5050474;28;20546;-45
2023/07/27 02:24:49;;;;;;;0.00;0.00;;;;;;;14.40;100.00;100719.34;5051186;28;20077;-45
2023/07/27 02:27:14;;;;;;;0.00;0.00;;;;;;;14.38;100.00;100710.63;5054073;28;20038;-45
2023/07/27 02:29:40;;;;;;;0.00;0.00;;;;;;;14.38;100.00;100708.72;5051784;28;20033;-44
2023/07/27 02:32:06;;;;;;;0.00;0.00;;;;;;;14.44;100.00;100704.34;5051150;28;20053;-43
2023/07/27 02:34:31;;;;;;;0.00;0.00;;;;;;;14.48;100.00;100695.59;5051307;28;20063;-45
2023/07/27 02:36:56;;;;;;;0.00;0.00;;;;;;;14.47;100.00;100688.50;5051217;28;20040;-47
2023/07/27 02:39:22;;;;;;;0.00;0.00;;;;;;;14.47;100.00;100690.38;5051170;28;20025;-46
2023/07/27 02:41:47;;;;;;;0.00;0.00;;;;;;;14.46;100.00;100688.72;5050989;28;20079;-49
2023/07/27 02:44:12;;;;;;;0.00;0.00;;;;;;;14.46;100.00;100670.59;5051446;28;20483;-44
2023/07/27 02:46:38;;;;;;;0.00;0.00;;;;;;;14.48;100.00;100681.19;5051741;28;20025;-46
2023/07/27 02:49:03;;;;;;;0.00;0.00;;;;;;;14.44;100.00;100678.09;5051584;28;20111;-46
2023/07/27 02:51:28;;;;;;;0.00;0.00;;;;;;;14.46;100.00;100665.19;5050852;28;20063;-50
2023/07/27 02:53:54;;;;;;;0.00;0.00;;;;;;;14.49;100.00;100655.81;5050653;28;20021;-49
2023/07/27 02:56:19;;;;;;;0.00;0.00;;;;;;;14.46;100.00;100656.22;5051110;28;20040;-50
2023/07/27 02:58:44;;;;;;;0.00;0.00;;;;;;;14.41;100.00;100656.88;5050584;28;20475;-49
2023/07/27 03:01:10;;;;;;;0.00;0.00;;;;;;;14.42;100.00;100647.69;5051012;28;20032;-49
2023/07/27 03:03:35;;;;;;;0.00;0.00;;;;;;;14.42;100.00;100646.84;5049356;28;20032;-48
2023/07/27 03:06:02;;;;;;;0.00;0.00;;;;;;;14.46;100.00;100645.41;5050683;28;20021;-48
2023/07/27 03:08:28;;;;;;;0.00;0.00;;;;;;;14.46;100.00;100646.22;5050625;28;20037;-47
2023/07/27 03:10:54;;;;;;;0.00;0.00;;;;;;;14.45;100.00;100643.72;5050575;28;20111;-47
2023/07/27 03:13:19;;;;;;;0.00;0.00;;;;;;;14.39;100.00;100631.03;5050645;28;20082;-47
2023/07/27 03:15:45;;;;;;;0.00;0.00;;;;;;;14.43;100.00;100622.28;5050457;28;20095;-47
2023/07/27 03:18:10;;;;;;;0.00;0.00;;;;;;;14.46;100.00;100616.44;5050839;28;20100;-47
2023/07/27 03:20:39;;;;;;;0.00;0.00;;;;;;;14.46;100.00;100616.44;5050275;28;20479;-44
2023/07/27 03:23:05;;;;;;;0.00;0.00;;;;;;;14.46;100.00;100604.78;5050543;28;20036;-44
2023/07/27 03:25:34;;;;;;;0.00;0.00;;;;;;;14.41;100.00;100596.47;5050169;28;20021;-43
2023/07/27 03:28:07;;;;;;;0.00;0.00;;;;;;;14.43;100.00;100597.91;5050516;28;20291;-46
2023/07/27 03:30:34;;;;;;;0.00;0.00;;;;;;;14.44;100.00;100596.03;5050528;28;20028;-50
2023/07/27 03:32:59;;;;;;;0.00;0.00;;;;;;;14.40;100.00;100589.38;5050318;28;20082;-49
2023/07/27 03:35:24;;;;;;;0.00;0.00;;;;;;;14.38;100.00;100586.06;5050557;28;20025;-45
2023/07/27 03:37:51;;;;;;;0.00;0.00;;;;;;;14.40;100.00;100589.38;5050142;28;20087;-47
2023/07/27 03:40:16;;;;;;;0.00;0.00;;;;;;;14.39;100.00;100576.91;5050395;28;20033;-50
2023/07/27 03:42:42;;;;;;;0.00;0.00;;;;;;;14.41;100.00;100577.53;5050158;28;20023;-48
2023/07/27 03:45:08;;;;;;;0.00;0.00;;;;;;;14.42;100.00;100571.88;5050147;28;20116;-49
2023/07/27 03:47:33;;;;;;;0.00;0.00;;;;;;;14.41;100.00;100569.41;5048619;28;20025;-49
2023/07/27 03:49:58;;;;;;;0.00;0.00;;;;;;;14.40;100.00;100567.72;5050046;28;20455;-48
2023/07/27 03:52:24;;;;;;;0.00;0.00;;;;;;;14.41;100.00;100558.56;5050113;28;20031;-46
2023/07/27 03:54:49;;;;;;;0.00;0.00;;;;;;;14.40;100.00;100557.75;5050114;28;20463;-51
2023/07/27 03:57:14;;;;;;;0.00;0.00;;;;;;;14.44;100.00;100544.59;5049991;28;20488;-49
2023/07/27 03:59:40;;;;;;;0.00;0.00;;;;;;;14.47;100.00;100552.28;5050031;28;20032;-48
2023/07/27 04:02:05;;;;;;;0.00;0.00;;;;;;;14.45;100.00;100554.38;5049979;28;20036;-47
2023/07/27 04:04:30;;;;;;;0.00;0.00;;;;;;;14.46;100.00;100545.22;5049985;28;20029;-50
2023/07/27 04:06:56;;;;;;;0.00;0.00;;;;;;;14.46;100.00;100542.50;5048594;28;20044;-50
2023/07/27 04:09:21;;;;;;;0.00;0.00;;;;;;;14.46;100.00;100542.50;5049932;28;20041;-45
2023/07/27 04:11:46;;;;;;;0.00;0.00;;;;;;;14.48;100.00;100529.56;5049895;28;20104;-46
2023/07/27 04:14:12;;;;;;;0.00;0.00;;;;;;;14.50;100.00;100530.19;5049881;28;20028;-49
2023/07/27 04:16:37;;;;;;;0.00;0.00;;;;;;;14.52;100.00;100530.81;5049841;28;20379;-48
2023/07/27 04:19:02;;;;;;;0.00;0.00;;;;;;;14.53;100.00;100532.50;5049915;28;20101;-48
2023/07/27 04:21:28;;;;;;;0.00;0.00;;;;;;;14.57;100.00;100524.78;5050123;28;20036;-46
2023/07/27 04:23:54;;;;;;;0.00;0.00;;;;;;;14.63;100.00;100518.50;5048542;28;20472;-49
2023/07/27 04:26:19;;;;;;;0.00;0.00;;;;;;;14.61;100.00;100512.44;5049812;28;20017;-48
2023/07/27 04:28:44;;;;;;;0.00;0.00;;;;;;;14.60;100.00;100508.91;5049703;28;20557;-46
2023/07/27 04:31:10;;;;;;;0.00;0.00;;;;;;;14.65;100.00;100516.41;5049807;28;20467;-50
2023/07/27 04:33:35;;;;;;;0.00;0.00;;;;;;;14.67;100.00;100519.72;5049681;28;20029;-48
2023/07/27 04:36:01;;;;;;;0.00;0.00;;;;;;;14.69;100.00;100502.22;5049861;28;20033;-48
2023/07/27 04:38:26;;;;;;;0.00;0.00;;;;;;;14.70;100.00;100503.03;5052664;28;20655;-47
2023/07/27 04:40:51;;;;;;;0.00;0.00;;;;;;;14.71;100.00;100501.97;5053510;28;20136;-48
2023/07/27 04:43:17;;;;;;;0.00;0.00;;;;;;;14.72;100.00;100500.97;5053351;28;20028;-48
2023/07/27 04:45:43;;;;;;;0.00;0.00;;;;;;;14.76;100.00;100495.91;5052298;28;20029;-49
2023/07/27 04:48:08;;;;;;;0.00;0.00;;;;;;;14.79;100.00;100484.66;5053378;28;20104;-50
2023/07/27 04:50:35;;;;;;;0.00;0.00;;;;;;;14.82;100.00;100484.19;5053527;28;20025;-47
2023/07/27 04:53:00;;;;;;;0.00;0.00;;;;;;;14.87;100.00;100481.66;5053767;28;20147;-52
2023/07/27 04:55:25;;;;;;;0.00;0.00;;;;;;;14.89;100.00;100487.69;5053825;28;20476;-49
2023/07/27 04:57:51;;;;;;;0.00;0.00;;;;;;;14.93;100.00;100489.75;5053261;28;20046;-47
2023/07/27 05:00:16;;;;;;;0.00;0.00;;;;;;;14.94;100.00;100474.34;5053878;28;20024;-49
2023/07/27 05:02:42;;;;;;;0.00;0.00;;;;;;;14.96;100.00;100468.69;5053105;28;20395;-47
2023/07/27 05:05:07;;;;;;;0.00;0.00;;;;;;;15.02;100.00;100473.22;5053240;28;20053;-46
2023/07/27 05:07:33;;;;;;;0.00;0.00;;;;;;;15.02;100.00;100470.53;5052977;28;20033;-47
2023/07/27 05:09:58;;;;;;;0.00;0.00;;;;;;;15.07;100.00;100465.28;5053199;28;20115;-50
2023/07/27 05:12:23;;;;;;;0.00;0.00;;;;;;;15.09;100.00;100464.00;5052642;28;20028;-48
2023/07/27 05:14:50;;;;;;;0.00;0.00;;;;;;;15.11;100.00;100466.47;5052534;28;20361;-50
2023/07/27 05:17:16;;;;;;;0.00;0.00;;;;;;;15.12;100.00;100466.25;5052660;28;20043;-49
2023/07/27 05:19:41;;;;;;;0.00;0.00;;;;;;;15.16;100.00;100461.22;5052370;28;20033;-45
2023/07/27 05:22:06;;;;;;;0.00;0.00;;;;;;;15.23;100.00;100463.88;5052619;28;20063;-50
2023/07/27 05:24:32;;;;;;;0.00;0.00;;;;;;;15.26;100.00;100468.88;5052592;28;20074;-48
2023/07/27 05:26:57;;;;;;;0.00;0.00;;;;;;;15.29;100.00;100465.69;5052541;28;20103;-51
2023/07/27 05:29:22;;;;;;;0.00;0.00;;;;;;;15.31;100.00;100458.19;5052275;28;20471;-48
2023/07/27 05:31:48;;;;;;;0.00;0.00;;;;;;;15.36;100.00;100453.75;5052392;28;20021;-49
2023/07/27 05:34:13;;;;;;;0.00;0.00;;;;;;;15.42;100.00;100462.88;5052285;28;20053;-49
2023/07/27 05:36:38;;;;;;;0.00;0.00;;;;;;;15.43;100.00;100469.13;5052159;28;20147;-50
2023/07/27 05:39:04;;;;;;;0.00;0.00;;;;;;;15.49;100.00;100458.22;5052176;28;20404;-49
2023/07/27 05:41:30;;;;;;;0.00;0.00;;;;;;;15.56;100.00;100453.56;5052115;28;20060;-49
2023/07/27 05:43:55;;;;;;;0.00;0.00;;;;;;;15.61;100.00;100452.88;5052105;28;20444;-46
2023/07/27 05:46:21;;;;;;;0.00;0.00;;;;;;;15.65;100.00;100455.97;5052079;28;20017;-45
2023/07/27 05:48:46;;;;;;;0.03;0.00;;;;;;;15.68;100.00;100455.53;5051572;28;20059;-46
2023/07/27 05:51:11;;;;;;;0.00;0.00;;;;;;;15.69;100.00;100449.06;5051930;28;20021;-43
2023/07/27 05:53:37;;;;;;;0.00;0.00;;;;;;;15.71;100.00;100441.53;5051834;28;20021;-44
2023/07/27 05:56:03;;;;;;;0.00;0.00;;;;;;;15.72;100.00;100440.50;5052114;28;20029;-43
2023/07/27 05:58:28;;;;;;;0.00;0.00;;;;;;;15.72;100.00;100440.50;5051649;28;20049;-47
2023/07/27 06:01:01;;;;;;;0.00;0.00;;;;;;;15.75;100.00;100431.91;5051921;28;20025;-45
2023/07/27 06:03:27;;;;;;;0.00;0.00;;;;;;;15.76;100.00;100428.13;5051539;28;20075;-47
2023/07/27 06:05:53;;;;;;;0.00;0.00;;;;;;;15.78;100.00;100434.16;5051711;28;20033;-46
2023/07/27 06:08:18;;;;;;;0.00;0.00;;;;;;;15.76;100.00;100434.38;5051718;28;20100;-45
2023/07/27 06:10:43;;;;;;;0.00;0.00;;;;;;;15.77;100.00;100421.63;5051632;28;20033;-46
2023/07/27 06:13:09;;;;;;;0.00;0.00;;;;;;;15.80;100.00;100426.63;5051555;28;20029;-46
2023/07/27 06:15:34;;;;;;;0.00;0.00;;;;;;;15.79;100.00;100430.38;5051593;28;20107;-45
2023/07/27 06:18:00;;;;;;;0.00;0.00;;;;;;;15.80;100.00;100427.47;5051421;28;20033;-46
2023/07/27 06:20:25;;;;;;;0.00;0.00;;;;;;;15.84;100.00;100421.56;5051313;28;20506;-46
2023/07/27 06:22:50;;;;;;;0.00;0.00;;;;;;;15.86;100.00;100425.72;5050134;28;20428;-42
2023/07/27 06:25:16;;;;;;;0.00;0.00;;;;;;;15.91;100.00;100430.47;5051630;28;20021;-41
2023/07/27 06:27:41;;;;;;;0.00;0.00;;;;;;;15.92;100.00;100430.22;5051738;28;20434;-41
2023/07/27 06:30:08;;;;;;;0.00;0.00;;;;;;;15.96;100.00;100436.88;5051235;28;20036;-46
2023/07/27 06:32:34;;;;;;;0.00;0.00;;;;;;;16.03;100.00;100428.63;5051260;28;20061;-44
2023/07/27 06:34:59;;;;;;;0.00;0.00;;;;;;;16.06;100.00;100424.63;5051151;28;20061;-45
2023/07/27 06:37:25;;;;;;;0.00;0.00;;;;;;;16.11;100.00;100435.63;5051239;28;20473;-45
2023/07/27 06:39:50;;;;;;;0.00;0.00;;;;;;;16.17;100.00;100427.41;5051271;28;20029;-44
2023/07/27 06:42:15;;;;;;;0.00;0.00;;;;;;;16.20;100.00;100428.84;5051055;28;20052;-47
2023/07/27 06:44:41;;;;;;;0.00;0.00;;;;;;;16.19;100.00;100425.31;5051245;28;20036;-46
2023/07/27 06:47:06;;;;;;;0.00;0.00;;;;;;;16.18;100.00;100439.09;5050931;28;20589;-49
2023/07/27 06:49:32;;;;;;;0.00;0.00;;;;;;;16.19;100.00;100430.75;5050994;28;20021;-47
2023/07/27 06:51:57;;;;;;;0.00;0.00;;;;;;;16.24;100.00;100433.59;5051814;28;20085;-47
2023/07/27 06:54:22;;;;;;;0.00;0.00;;;;;;;16.20;100.00;100428.84;5052855;28;20083;-48
2023/07/27 06:56:48;;;;;;;0.00;0.00;;;;;;;16.22;100.00;100434.88;5053011;28;20112;-47
2023/07/27 06:59:13;;;;;;;0.00;0.00;;;;;;;16.20;100.00;100437.00;5052086;28;20025;-47
2023/07/27 07:01:38;;;;;;;0.00;0.00;;;;;;;16.21;100.00;100430.50;5050402;28;20035;-47
2023/07/27 07:04:04;;;;;;;0.00;0.00;;;;;;;16.25;100.00;100434.41;5050911;28;20035;-46
2023/07/27 07:06:30;;;;;;;0.00;0.00;;;;;;;16.26;100.00;100433.34;5050793;28;20089;-45
2023/07/27 07:08:57;;;;;;;0.00;0.00;;;;;;;16.24;100.00;100438.19;5050824;28;20090;-46
2023/07/27 07:11:22;;;;;;;0.00;0.00;;;;;;;16.24;100.00;100439.03;5050383;28;20033;-47
2023/07/27 07:13:48;;;;;;;0.00;0.00;;;;;;;16.30;100.00;100448.13;5050569;28;20055;-49
2023/07/27 07:16:13;;;;;;;0.00;0.00;;;;;;;16.35;100.00;100448.28;5050284;28;20055;-47
2023/07/27 07:18:39;;;;;;;0.00;0.00;;;;;;;16.36;100.00;100430.91;5050085;28;20056;-48
2023/07/27 07:21:04;;;;;;;0.00;0.00;;;;;;;16.38;100.00;100434.25;5050406;28;20128;-48
2023/07/27 07:23:29;;;;;;;0.00;0.00;;;;;;;16.46;100.00;100438.53;5050500;28;20029;-47
2023/07/27 07:25:55;;;;;;;0.00;0.00;;;;;;;16.46;100.00;100425.75;5050549;28;20028;-48
2023/07/27 07:28:20;;;;;;;0.00;0.00;;;;;;;16.53;100.00;100424.81;5050427;28;20033;-51
2023/07/27 07:30:45;;;;;;;0.00;0.00;;;;;;;16.56;100.00;100429.78;5050207;28;20056;-49
2023/07/27 07:33:11;;;;;;;0.00;0.00;;;;;;;16.60;100.00;100420.13;5050647;28;20035;-49
2023/07/27 07:35:38;;;;;;;0.00;0.00;;;;;;;16.62;100.00;100428.88;5050311;28;20104;-48
2023/07/27 07:38:05;;;;;;;0.00;0.00;;;;;;;16.60;100.00;100428.28;5050953;28;20055;-50
2023/07/27 07:40:31;;;;;;;0.00;0.00;;;;;;;16.60;100.00;100431.81;5050269;28;20491;-48
2023/07/27 07:42:56;;;;;;;0.00;0.00;;;;;;;16.63;100.00;100425.09;5050448;28;20170;-50
2023/07/27 07:45:21;;;;;;;0.00;0.00;;;;;;;16.54;100.00;100418.34;5050172;28;20017;-47
2023/07/27 07:47:46;;;;;;;0.00;0.00;;;;;;;16.66;100.00;100420.00;5050418;28;20436;-47
2023/07/27 07:50:12;;;;;;;0.00;0.00;;;;;;;16.63;100.00;100419.66;5050189;28;20021;-45
2023/07/27 07:52:37;;;;;;;0.00;0.00;;;;;;;16.71;100.00;100416.59;5050077;28;20028;-49
2023/07/27 07:55:03;;;;;;;0.00;0.00;;;;;;;16.75;100.00;100417.81;5049434;28;20037;-50
2023/07/27 07:57:28;;;;;;;0.00;0.00;;;;;;;16.74;100.00;100412.59;5050022;28;20048;-50
2023/07/27 07:59:54;;;;;;;0.00;0.00;;;;;;;16.76;100.00;100419.47;5050104;28;20025;-50
2023/07/27 08:02:19;;;;;;;0.00;0.00;;;;;;;16.66;100.00;100409.16;5049829;28;20104;-51
2023/07/27 08:04:44;;;;;;;0.00;0.00;;;;;;;16.71;100.00;100416.59;5050050;28;20025;-41
2023/07/27 08:07:10;;;;;;;0.00;0.00;;;;;;;16.66;100.00;100409.16;5050685;28;20039;-43
2023/07/27 08:09:36;;;;;;;0.00;0.00;;;;;;;16.72;100.00;100396.53;5050307;28;20017;-44
2023/07/27 08:12:01;;;;;;;0.00;0.00;;;;;;;16.75;100.00;100401.50;5052365;28;20053;-49
2023/07/27 08:14:26;;;;;;;0.00;0.00;;;;;;;16.82;100.00;100396.81;5053971;28;20029;-48
2023/07/27 08:16:52;;;;;;;0.00;0.00;;;;;;;16.84;100.00;100388.44;5053510;28;20150;-48
2023/07/27 08:19:17;;;;;;;0.00;0.00;;;;;;;16.81;100.00;100395.16;5053944;28;20150;-48
2023/07/27 08:21:43;;;;;;;0.00;0.00;;;;;;;16.79;100.00;100401.88;5053736;28;20163;-51
2023/07/27 08:24:08;;;;;;;0.00;0.00;;;;;;;16.88;100.00;100387.72;5053745;28;20056;-50
2023/07/27 08:26:33;;;;;;;0.00;0.00;;;;;;;16.92;100.00;100393.50;5053555;28;20467;-46
2023/07/27 08:28:59;;;;;;;0.00;0.00;;;;;;;16.92;100.00;100387.25;5053537;28;20033;-47
2023/07/27 08:31:24;;;;;;;0.00;0.00;;;;;;;17.05;100.00;100390.56;5053404;28;20067;-49
2023/07/27 08:33:49;;;;;;;0.00;0.00;;;;;;;17.14;100.00;100382.06;5053412;28;20467;-49
2023/07/27 08:36:15;;;;;;;0.00;0.00;;;;;;;17.14;100.00;100377.47;5053085;28;20110;-48
2023/07/27 08:38:40;;;;;;;0.00;0.00;;;;;;;17.22;100.00;100379.84;5053322;28;20075;-49
2023/07/27 08:41:05;;;;;;;0.00;0.00;;;;;;;17.24;100.00;100377.69;5053165;28;20036;-52
2023/07/27 08:43:31;;;;;;;0.00;0.00;;;;;;;17.10;100.00;100381.72;5053219;28;20028;-49
2023/07/27 08:45:56;;;;;;;0.00;0.00;;;;;;;17.18;100.00;100389.50;5053083;28;20021;-52
2023/07/27 08:48:25;;;;;;;0.00;0.00;;;;;;;17.22;100.00;100379.84;5052076;28;20020;-49
2023/07/27 08:50:51;;;;;;;0.00;0.00;;;;;;;17.17;100.00;100377.00;5053051;28;20032;-48
2023/07/27 08:53:17;;;;;;;0.00;0.00;;;;;;;17.24;100.00;100391.28;5053472;28;20387;-51
2023/07/27 08:55:43;;;;;;;0.00;0.00;;;;;;;17.30;100.00;100387.63;5052543;28;20025;-49
2023/07/27 08:58:10;;;;;;;0.00;0.00;;;;;;;17.21;100.00;100380.06;5053335;28;20046;-51
2023/07/27 09:00:37;;;;;;;0.00;0.00;;;;;;;17.19;100.00;100380.28;5052873;28;20063;-49
2023/07/27 09:03:04;;;;;;;0.00;0.00;;;;;;;17.22;100.00;100388.00;5052986;28;20064;-48
2023/07/27 09:06:05;;;;;;;0.00;0.00;;;;;;;17.30;100.00;100379.47;5053354;28;20052;-52
2023/07/27 09:08:30;;;;;;;0.00;0.00;;;;;;;17.45;100.00;100378.13;5050795;28;20040;-49
2023/07/27 09:11:04;;;;;;;0.00;0.00;;;;;;;17.45;100.00;100373.53;5052617;28;20032;-52
2023/07/27 09:13:33;;;;;;;0.00;0.00;;;;;;;17.56;100.00;100374.56;5051549;28;20029;-51
2023/07/27 09:16:00;;;;;;;0.00;0.00;;;;;;;17.41;100.00;100366.09;5053270;28;20032;-46
2023/07/27 09:18:25;;;;;;;0.00;0.00;;;;;;;17.51;100.00;100371.75;5052967;28;20025;-48
2023/07/27 09:20:51;;;;;;;0.00;0.00;;;;;;;17.59;100.00;100374.09;5052941;28;20024;-50
2023/07/27 09:23:20;;;;;;;0.00;0.00;;;;;;;17.58;100.00;100377.88;5051933;28;20052;-50
2023/07/27 09:25:55;;;;;;;0.00;0.00;;;;;;;17.62;100.00;100378.25;5052904;28;20043;-49
2023/07/27 09:28:24;;;;;;;0.00;0.00;;;;;;;17.73;100.00;100380.09;5052758;28;20434;-47
2023/07/27 09:30:50;;;;;;;0.00;0.00;;;;;;;17.69;100.00;100385.22;5052495;28;20028;-44
2023/07/27 09:33:16;;;;;;;0.00;0.00;;;;;;;17.77;100.00;100370.38;5052300;28;20321;-48
2023/07/27 09:35:43;;;;;;;0.00;0.00;;;;;;;17.85;100.00;100377.38;5052229;28;20127;-45
2023/07/27 09:38:09;;;;;;;0.00;0.00;;;;;;;17.82;100.00;100383.31;5051349;28;20052;-50
2023/07/27 09:40:34;;;;;;;0.00;0.00;;;;;;;17.76;100.00;100372.28;5052654;28;20052;-47
2023/07/27 09:43:06;;;;;;;0.00;0.00;;;;;;;17.68;100.00;100375.38;5052296;28;20061;-46
2023/07/27 09:45:36;;;;;;;0.00;0.00;;;;;;;17.69;100.00;100387.94;5052416;28;20059;-46
2023/07/27 09:48:01;;;;;;;0.00;0.00;;;;;;;17.68;100.00;100383.53;5052274;28;20491;-46
2023/07/27 09:50:27;;;;;;;0.00;0.00;;;;;;;17.64;100.00;100376.94;5050395;28;20040;-46
2023/07/27 09:52:52;;;;;;;0.00;0.00;;;;;;;17.51;100.00;100375.31;5051693;28;20108;-46
2023/07/27 09:55:18;;;;;;;0.00;0.00;;;;;;;17.56;100.00;100369.13;5051282;28;20037;-47
2023/07/27 09:57:44;;;;;;;0.00;0.00;;;;;;;17.61;100.00;100366.50;5051778;28;20475;-49
2023/07/27 10:00:10;;;;;;;0.00;0.00;;;;;;;17.77;100.00;100376.66;5050659;28;20563;-47
2023/07/27 10:02:35;;;;;;;0.00;0.00;;;;;;;17.89;100.00;100364.94;5050262;28;20031;-48
2023/07/27 10:05:03;;;;;;;0.00;0.00;;;;;;;17.99;100.00;100373.31;5051642;28;20104;-48
2023/07/27 10:07:28;;;;;;;0.00;0.00;;;;;;;17.83;100.00;100374.09;5050623;28;20020;-48
2023/07/27 10:10:42;;;;;;;0.00;0.00;;;;;;;17.93;100.00;100369.66;5051335;28;20033;-48
2023/07/27 10:13:23;;;;;;;0.00;0.00;;;;;;;18.11;100.00;100370.53;5051080;28;20044;-48
2023/07/27 10:15:49;;;;;;;0.00;0.00;;;;;;;18.08;100.00;100371.84;5050392;28;20446;-49
2023/07/27 10:18:15;;;;;;;0.00;0.00;;;;;;;18.04;100.00;100359.81;5051374;28;20036;-51
2023/07/27 10:20:41;;;;;;;0.00;0.00;;;;;;;17.99;100.00;100378.75;5051481;28;20021;-48
2023/07/27 10:23:12;;;;;;;0.00;0.00;;;;;;;18.05;100.00;100364.16;5051277;28;20096;-51
2023/07/27 10:25:54;;;;;;;0.00;0.00;;;;;;;18.18;100.00;100368.50;5051147;28;20087;-50
2023/07/27 10:28:41;;;;;;;0.00;0.00;;;;;;;18.19;100.00;100368.25;5051620;28;20138;-48
2023/07/27 10:31:26;;;;;;;0.00;0.00;;;;;;;18.20;100.00;100369.91;5049893;28;20028;-46
2023/07/27 10:34:07;;;;;;;0.00;0.00;;;;;;;18.08;100.00;100373.75;5050942;28;20042;-50
2023/07/27 10:36:57;;;;;;;0.00;0.00;;;;;;;18.12;100.00;100373.03;5051016;28;20060;-47
2023/07/27 10:39:34;;;;;;;0.00;0.00;;;;;;;18.06;100.00;100371.28;5049663;28;20467;-50
2023/07/27 10:41:59;;;;;;;0.00;0.00;;;;;;;18.01;100.00;100365.75;5050974;28;20024;-49
2023/07/27 10:44:26;;;;;;;0.00;0.00;;;;;;;18.11;100.00;100368.63;5050747;28;20021;-48
2023/07/27 10:46:55;;;;;;;0.00;0.00;;;;;;;18.15;100.00;100366.25;5050960;28;20035;-50
2023/07/27 10:49:20;;;;;;;0.00;0.00;;;;;;;18.16;100.00;100376.06;5050419;28;20529;-50
2023/07/27 10:51:46;;;;;;;0.00;0.00;;;;;;;18.19;100.00;100372.84;5050707;28;20103;-46
2023/07/27 10:54:12;;;;;;;0.00;0.00;;;;;;;18.07;100.00;100374.81;5049533;28;20029;-51
2023/07/27 10:56:38;;;;;;;0.00;0.00;;;;;;;18.07;100.00;100370.19;5050596;28;20021;-51
2023/07/27 10:59:04;;;;;;;0.00;0.00;;;;;;;18.08;100.00;100377.28;5049204;28;20037;-48
2023/07/27 11:01:33;;;;;;;0.00;0.00;;;;;;;18.14;100.00;100370.88;5049637;28;20067;-49
2023/07/27 11:03:58;;;;;;;0.00;0.00;;;;;;;18.14;100.00;100373.63;5050335;28;20436;-51
2023/07/27 11:06:27;;;;;;;0.00;0.00;;;;;;;18.16;100.00;100389.69;5050605;28;20108;-48
2023/07/27 11:08:53;;;;;;;0.45;0.00;;;;;;;18.01;100.00;100373.91;5050798;28;20124;-48
2023/07/27 11:11:20;;;;;;;0.00;0.00;;;;;;;18.02;100.00;100383.72;5050260;28;20155;-48
2023/07/27 11:13:46;;;;;;;0.00;0.00;;;;;;;18.07;100.00;100381.09;5050988;28;20040;-48
2023/07/27 11:16:15;;;;;;;0.00;0.00;;;;;;;18.13;100.00;100380.09;5050400;28;20911;-47